sensor_id;sensor_type;location;lat;lon;timestamp;temperature;humidity
72604;DHT22;60645;56.968;24.196;2023-07-31T00:01:34;15.20;99.90
72604;DHT22;60645;56.968;24.196;2023-07-31T00:04:01;15.20;99.90
72604;DHT22;60645;56.968;24.196;2023-07-31T00:06:28;15.20;99.90
72604;DHT22;60645;56.968;24.196;2023-07-31T00:08:54;15.30;99.90
72604;DHT22;60645;56.968;24.196;2023-07-31T00:11:21;15.30;99.90
72604;DHT22;60645;56.968;24.196;2023-07-31T00:13:48;15.30;99.90
72604;DHT22;60645;56.968;24.196;2023-07-31T00:16:15;15.40;99.90
72604;DHT22;60645;56.968;24.196;2023-07-31T00:18:42;15.40;99.90
72604;DHT22;60645;56.968;24.196;2023-07-31T00:21:08;15.50;99.90
72604;DHT22;60645;56.968;24.196;2023-07-31T00:23:35;15.40;99.90
72604;DHT22;60645;56.968;24.196;2023-07-31T00:26:02;15.50;99.90
72604;DHT22;60645;56.968;24.196;2023-07-31T00:28:29;15.50;99.90
72604;DHT22;60645;56.968;24.196;2023-07-31T00:30:55;15.50;99.90
72604;DHT22;60645;56.968;24.196;2023-07-31T00:33:22;15.50;99.90
72604;DHT22;60645;56.968;24.196;2023-07-31T00:35:49;15.70;99.90
72604;DHT22;60645;56.968;24.196;2023-07-31T00:38:16;15.60;99.90
72604;DHT22;60645;56.968;24.196;2023-07-31T00:40:43;15.60;99.90
72604;DHT22;60645;56.968;24.196;2023-07-31T00:43:09;15.70;99.90
72604;DHT22;60645;56.968;24.196;2023-07-31T00:45:36;15.80;99.90
72604;DHT22;60645;56.968;24.196;2023-07-31T00:48:04;15.70;99.90
72604;DHT22;60645;56.968;24.196;2023-07-31T00:50:33;15.70;99.90
72604;DHT22;60645;56.968;24.196;2023-07-31T00:52:59;15.60;99.90
72604;DHT22;60645;56.968;24.196;2023-07-31T00:55:26;15.50;99.90
72604;DHT22;60645;56.968;24.196;2023-07-31T00:57:53;15.50;99.90
72604;DHT22;60645;56.968;24.196;2023-07-31T01:00:22;15.40;99.90
72604;DHT22;60645;56.968;24.196;2023-07-31T01:02:49;15.40;99.90
72604;DHT22;60645;56.968;24.196;2023-07-31T01:05:18;15.40;99.90
72604;DHT22;60645;56.968;24.196;2023-07-31T01:07:52;15.40;99.90
72604;DHT22;60645;56.968;24.196;2023-07-31T01:10:21;15.30;99.90
72604;DHT22;60645;56.968;24.196;2023-07-31T01:12:50;15.30;99.90
72604;DHT22;60645;56.968;24.196;2023-07-31T01:15:17;15.30;99.90
72604;DHT22;60645;56.968;24.196;2023-07-31T01:17:44;15.30;99.90
72604;DHT22;60645;56.968;24.196;2023-07-31T01:20:18;15.20;99.90
72604;DHT22;60645;56.968;24.196;2023-07-31T01:28:02;15.10;99.90
72604;DHT22;60645;56.968;24.196;2023-07-31T01:30:34;15.00;99.90
72604;DHT22;60645;56.968;24.196;2023-07-31T01:33:04;15.10;99.90
72604;DHT22;60645;56.968;24.196;2023-07-31T01:35:34;15.00;99.90
72604;DHT22;60645;56.968;24.196;2023-07-31T01:38:01;14.90;99.90
72604;DHT22;60645;56.968;24.196;2023-07-31T01:40:28;15.00;99.90
72604;DHT22;60645;56.968;24.196;2023-07-31T01:42:55;15.00;99.90
72604;DHT22;60645;56.968;24.196;2023-07-31T01:45:21;15.00;99.90
72604;DHT22;60645;56.968;24.196;2023-07-31T01:47:48;14.90;99.90
72604;DHT22;60645;56.968;24.196;2023-07-31T01:50:15;14.90;99.90
72604;DHT22;60645;56.968;24.196;2023-07-31T01:52:42;15.00;99.90
72604;DHT22;60645;56.968;24.196;2023-07-31T01:55:09;15.00;99.90
72604;DHT22;60645;56.968;24.196;2023-07-31T01:57:36;15.00;99.90
72604;DHT22;60645;56.968;24.196;2023-07-31T02:00:03;15.00;99.90
72604;DHT22;60645;56.968;24.196;2023-07-31T02:02:31;15.10;99.90
72604;DHT22;60645;56.968;24.196;2023-07-31T02:04:58;15.30;99.90
72604;DHT22;60645;56.968;24.196;2023-07-31T02:07:24;15.30;99.90
72604;DHT22;60645;56.968;24.196;2023-07-31T02:09:51;15.40;99.90
72604;DHT22;60645;56.968;24.196;2023-07-31T02:12:18;15.40;99.90
72604;DHT22;60645;56.968;24.196;2023-07-31T02:14:44;15.40;99.90
72604;DHT22;60645;56.968;24.196;2023-07-31T02:17:11;15.50;99.90
72604;DHT22;60645;56.968;24.196;2023-07-31T02:19:38;15.60;99.90
72604;DHT22;60645;56.968;24.196;2023-07-31T02:22:05;15.60;99.90
72604;DHT22;60645;56.968;24.196;2023-07-31T02:24:32;15.60;99.90
72604;DHT22;60645;56.968;24.196;2023-07-31T02:26:59;15.60;99.90
72604;DHT22;60645;56.968;24.196;2023-07-31T02:29:25;15.70;99.90
72604;DHT22;60645;56.968;24.196;2023-07-31T02:31:52;15.70;99.90
72604;DHT22;60645;56.968;24.196;2023-07-31T02:34:19;15.70;99.90
72604;DHT22;60645;56.968;24.196;2023-07-31T02:36:46;15.70;99.90
72604;DHT22;60645;56.968;24.196;2023-07-31T02:39:12;15.70;99.90
72604;DHT22;60645;56.968;24.196;2023-07-31T02:41:39;15.60;99.90
72604;DHT22;60645;56.968;24.196;2023-07-31T02:44:06;15.70;99.90
72604;DHT22;60645;56.968;24.196;2023-07-31T02:46:33;15.60;99.90
72604;DHT22;60645;56.968;24.196;2023-07-31T02:48:59;15.50;99.90
72604;DHT22;60645;56.968;24.196;2023-07-31T02:51:26;15.50;99.90
72604;DHT22;60645;56.968;24.196;2023-07-31T02:53:53;15.50;99.90
72604;DHT22;60645;56.968;24.196;2023-07-31T02:56:20;15.50;99.90
72604;DHT22;60645;56.968;24.196;2023-07-31T02:58:46;15.40;99.90
72604;DHT22;60645;56.968;24.196;2023-07-31T03:01:13;15.50;99.90
72604;DHT22;60645;56.968;24.196;2023-07-31T03:03:41;15.50;99.90
72604;DHT22;60645;56.968;24.196;2023-07-31T03:06:08;15.60;99.90
72604;DHT22;60645;56.968;24.196;2023-07-31T03:08:34;15.70;99.90
72604;DHT22;60645;56.968;24.196;2023-07-31T03:11:01;15.70;99.60
72604;DHT22;60645;56.968;24.196;2023-07-31T03:13:28;15.70;99.70
72604;DHT22;60645;56.968;24.196;2023-07-31T03:15:54;15.60;99.90
72604;DHT22;60645;56.968;24.196;2023-07-31T03:18:21;15.50;99.90
72604;DHT22;60645;56.968;24.196;2023-07-31T03:20:48;15.50;99.90
72604;DHT22;60645;56.968;24.196;2023-07-31T03:23:15;15.40;99.90
72604;DHT22;60645;56.968;24.196;2023-07-31T03:25:54;15.50;99.90
72604;DHT22;60645;56.968;24.196;2023-07-31T03:28:21;15.40;99.90
72604;DHT22;60645;56.968;24.196;2023-07-31T03:30:48;15.60;99.90
72604;DHT22;60645;56.968;24.196;2023-07-31T03:33:15;15.50;99.90
72604;DHT22;60645;56.968;24.196;2023-07-31T03:35:42;15.70;99.60
72604;DHT22;60645;56.968;24.196;2023-07-31T03:38:08;15.70;99.00
72604;DHT22;60645;56.968;24.196;2023-07-31T03:40:38;15.80;98.70
72604;DHT22;60645;56.968;24.196;2023-07-31T03:43:05;16.00;98.40
72604;DHT22;60645;56.968;24.196;2023-07-31T03:45:31;16.00;98.10
72604;DHT22;60645;56.968;24.196;2023-07-31T03:47:58;16.00;98.00
72604;DHT22;60645;56.968;24.196;2023-07-31T03:50:25;16.10;98.00
72604;DHT22;60645;56.968;24.196;2023-07-31T03:52:52;16.10;97.90
72604;DHT22;60645;56.968;24.196;2023-07-31T03:55:19;16.10;98.10
72604;DHT22;60645;56.968;24.196;2023-07-31T03:57:46;16.00;98.00
72604;DHT22;60645;56.968;24.196;2023-07-31T04:00:12;16.00;98.20
72604;DHT22;60645;56.968;24.196;2023-07-31T04:02:39;16.10;97.80
72604;DHT22;60645;56.968;24.196;2023-07-31T04:05:06;16.20;97.40
72604;DHT22;60645;56.968;24.196;2023-07-31T04:07:33;16.20;97.80
72604;DHT22;60645;56.968;24.196;2023-07-31T04:10:00;16.20;97.50
72604;DHT22;60645;56.968;24.196;2023-07-31T04:12:27;16.40;97.20
72604;DHT22;60645;56.968;24.196;2023-07-31T04:14:54;16.50;97.00
72604;DHT22;60645;56.968;24.196;2023-07-31T04:17:20;16.70;96.20
72604;DHT22;60645;56.968;24.196;2023-07-31T04:19:47;16.80;95.60
72604;DHT22;60645;56.968;24.196;2023-07-31T04:22:14;16.60;95.90
72604;DHT22;60645;56.968;24.196;2023-07-31T04:24:41;16.60;95.60
72604;DHT22;60645;56.968;24.196;2023-07-31T04:27:07;16.60;96.40
72604;DHT22;60645;56.968;24.196;2023-07-31T04:29:34;16.70;95.60
72604;DHT22;60645;56.968;24.196;2023-07-31T04:32:01;16.60;96.00
72604;DHT22;60645;56.968;24.196;2023-07-31T04:34:28;16.60;95.50
72604;DHT22;60645;56.968;24.196;2023-07-31T04:36:55;16.50;95.70
72604;DHT22;60645;56.968;24.196;2023-07-31T04:39:21;16.30;96.70
72604;DHT22;60645;56.968;24.196;2023-07-31T04:41:48;16.30;96.80
72604;DHT22;60645;56.968;24.196;2023-07-31T04:44:15;16.30;96.80
72604;DHT22;60645;56.968;24.196;2023-07-31T04:46:42;16.30;97.20
72604;DHT22;60645;56.968;24.196;2023-07-31T04:49:09;16.30;97.30
72604;DHT22;60645;56.968;24.196;2023-07-31T04:51:36;16.40;97.70
72604;DHT22;60645;56.968;24.196;2023-07-31T04:54:02;16.50;96.80
72604;DHT22;60645;56.968;24.196;2023-07-31T04:56:29;16.80;96.00
72604;DHT22;60645;56.968;24.196;2023-07-31T04:58:56;16.90;95.00
72604;DHT22;60645;56.968;24.196;2023-07-31T05:01:23;17.00;95.00
72604;DHT22;60645;56.968;24.196;2023-07-31T05:03:50;17.10;94.80
72604;DHT22;60645;56.968;24.196;2023-07-31T05:06:17;17.10;94.20
72604;DHT22;60645;56.968;24.196;2023-07-31T05:08:43;17.10;94.20
72604;DHT22;60645;56.968;24.196;2023-07-31T05:11:10;16.90;94.20
72604;DHT22;60645;56.968;24.196;2023-07-31T05:13:37;17.00;94.50
72604;DHT22;60645;56.968;24.196;2023-07-31T05:16:04;17.00;94.60
72604;DHT22;60645;56.968;24.196;2023-07-31T05:18:31;17.10;94.80
72604;DHT22;60645;56.968;24.196;2023-07-31T05:20:58;17.40;94.00
72604;DHT22;60645;56.968;24.196;2023-07-31T05:23:25;17.50;93.10
72604;DHT22;60645;56.968;24.196;2023-07-31T05:25:52;17.60;93.40
72604;DHT22;60645;56.968;24.196;2023-07-31T05:28:18;17.50;93.30
72604;DHT22;60645;56.968;24.196;2023-07-31T05:30:45;17.50;92.60
72604;DHT22;60645;56.968;24.196;2023-07-31T05:33:12;17.40;92.70
72604;DHT22;60645;56.968;24.196;2023-07-31T05:35:40;17.30;92.80
72604;DHT22;60645;56.968;24.196;2023-07-31T05:38:07;17.10;93.00
72604;DHT22;60645;56.968;24.196;2023-07-31T05:40:34;17.10;93.30
72604;DHT22;60645;56.968;24.196;2023-07-31T05:43:01;17.30;93.00
72604;DHT22;60645;56.968;24.196;2023-07-31T05:45:28;17.70;92.10
72604;DHT22;60645;56.968;24.196;2023-07-31T05:47:54;17.90;90.80
72604;DHT22;60645;56.968;24.196;2023-07-31T05:50:21;18.10;90.60
72604;DHT22;60645;56.968;24.196;2023-07-31T05:52:48;18.00;90.70
72604;DHT22;60645;56.968;24.196;2023-07-31T05:55:15;18.40;89.10
72604;DHT22;60645;56.968;24.196;2023-07-31T05:57:43;18.70;87.80
72604;DHT22;60645;56.968;24.196;2023-07-31T06:00:12;18.90;86.70
72604;DHT22;60645;56.968;24.196;2023-07-31T06:02:40;19.70;86.80
72604;DHT22;60645;56.968;24.196;2023-07-31T06:05:07;20.00;84.00
72604;DHT22;60645;56.968;24.196;2023-07-31T06:07:34;19.90;83.20
72604;DHT22;60645;56.968;24.196;2023-07-31T06:10:01;20.20;82.70
72604;DHT22;60645;56.968;24.196;2023-07-31T06:12:31;20.90;81.70
72604;DHT22;60645;56.968;24.196;2023-07-31T06:14:58;21.60;78.40
72604;DHT22;60645;56.968;24.196;2023-07-31T06:17:25;21.50;78.40
72604;DHT22;60645;56.968;24.196;2023-07-31T06:19:52;21.90;78.80
72604;DHT22;60645;56.968;24.196;2023-07-31T06:24:48;23.80;70.50
72604;DHT22;60645;56.968;24.196;2023-07-31T06:27:15;23.80;70.40
72604;DHT22;60645;56.968;24.196;2023-07-31T06:29:42;23.90;70.00
72604;DHT22;60645;56.968;24.196;2023-07-31T06:32:09;24.10;69.30
72604;DHT22;60645;56.968;24.196;2023-07-31T06:34:36;24.40;69.50
72604;DHT22;60645;56.968;24.196;2023-07-31T06:37:02;24.00;69.60
72604;DHT22;60645;56.968;24.196;2023-07-31T06:39:29;23.70;70.10
72604;DHT22;60645;56.968;24.196;2023-07-31T06:41:56;23.30;71.80
72604;DHT22;60645;56.968;24.196;2023-07-31T06:44:23;23.00;73.30
72604;DHT22;60645;56.968;24.196;2023-07-31T06:46:50;23.00;73.40
72604;DHT22;60645;56.968;24.196;2023-07-31T06:49:17;23.20;72.40
72604;DHT22;60645;56.968;24.196;2023-07-31T06:51:43;22.40;75.00
72604;DHT22;60645;56.968;24.196;2023-07-31T06:54:10;21.90;76.70
72604;DHT22;60645;56.968;24.196;2023-07-31T06:56:37;21.70;76.30
72604;DHT22;60645;56.968;24.196;2023-07-31T06:59:06;21.60;77.00
72604;DHT22;60645;56.968;24.196;2023-07-31T07:01:33;21.40;77.50
72604;DHT22;60645;56.968;24.196;2023-07-31T07:04:00;20.70;79.50
72604;DHT22;60645;56.968;24.196;2023-07-31T07:06:27;20.40;81.20
72604;DHT22;60645;56.968;24.196;2023-07-31T07:08:54;20.40;81.80
72604;DHT22;60645;56.968;24.196;2023-07-31T07:11:21;20.60;82.00
72604;DHT22;60645;56.968;24.196;2023-07-31T07:13:47;21.40;79.00
72604;DHT22;60645;56.968;24.196;2023-07-31T07:16:14;22.40;77.00
72604;DHT22;60645;56.968;24.196;2023-07-31T07:18:41;23.70;74.10
72604;DHT22;60645;56.968;24.196;2023-07-31T07:21:24;24.30;69.10
72604;DHT22;60645;56.968;24.196;2023-07-31T07:23:50;23.70;70.90
72604;DHT22;60645;56.968;24.196;2023-07-31T07:26:17;23.40;72.40
72604;DHT22;60645;56.968;24.196;2023-07-31T07:28:44;23.00;73.90
72604;DHT22;60645;56.968;24.196;2023-07-31T07:31:11;22.80;73.90
72604;DHT22;60645;56.968;24.196;2023-07-31T07:36:05;24.00;71.50
72604;DHT22;60645;56.968;24.196;2023-07-31T07:38:36;24.10;70.90
72604;DHT22;60645;56.968;24.196;2023-07-31T07:41:04;24.50;69.70
72604;DHT22;60645;56.968;24.196;2023-07-31T07:43:31;25.40;68.10
72604;DHT22;60645;56.968;24.196;2023-07-31T07:45:58;25.40;65.50
72604;DHT22;60645;56.968;24.196;2023-07-31T07:48:24;25.10;67.80
72604;DHT22;60645;56.968;24.196;2023-07-31T07:50:52;24.60;68.20
72604;DHT22;60645;56.968;24.196;2023-07-31T07:53:18;24.10;70.30
72604;DHT22;60645;56.968;24.196;2023-07-31T07:55:45;24.30;69.80
72604;DHT22;60645;56.968;24.196;2023-07-31T07:58:12;25.10;67.40
72604;DHT22;60645;56.968;24.196;2023-07-31T08:00:39;25.70;65.70
72604;DHT22;60645;56.968;24.196;2023-07-31T08:03:06;24.80;67.00
72604;DHT22;60645;56.968;24.196;2023-07-31T08:05:33;24.40;68.70
72604;DHT22;60645;56.968;24.196;2023-07-31T08:08:01;24.50;68.20
72604;DHT22;60645;56.968;24.196;2023-07-31T08:10:27;25.70;65.90
72604;DHT22;60645;56.968;24.196;2023-07-31T08:12:54;27.00;62.20
72604;DHT22;60645;56.968;24.196;2023-07-31T08:15:21;27.70;59.20
72604;DHT22;60645;56.968;24.196;2023-07-31T08:17:48;27.20;58.70
72604;DHT22;60645;56.968;24.196;2023-07-31T08:20:15;26.20;61.90
72604;DHT22;60645;56.968;24.196;2023-07-31T08:25:09;27.40;58.20
72604;DHT22;60645;56.968;24.196;2023-07-31T08:27:35;26.30;60.20
72604;DHT22;60645;56.968;24.196;2023-07-31T08:30:02;26.60;61.80
72604;DHT22;60645;56.968;24.196;2023-07-31T08:32:29;26.60;60.60
72604;DHT22;60645;56.968;24.196;2023-07-31T08:34:56;26.80;59.60
72604;DHT22;60645;56.968;24.196;2023-07-31T08:37:23;27.60;59.20
72604;DHT22;60645;56.968;24.196;2023-07-31T08:39:50;28.00;56.30
72604;DHT22;60645;56.968;24.196;2023-07-31T08:42:16;28.60;54.20
72604;DHT22;60645;56.968;24.196;2023-07-31T08:44:43;30.20;51.50
72604;DHT22;60645;56.968;24.196;2023-07-31T08:47:10;30.70;50.50
72604;DHT22;60645;56.968;24.196;2023-07-31T08:49:37;32.00;47.90
72604;DHT22;60645;56.968;24.196;2023-07-31T08:52:05;31.60;48.10
72604;DHT22;60645;56.968;24.196;2023-07-31T08:54:32;31.90;48.30
72604;DHT22;60645;56.968;24.196;2023-07-31T08:57:02;31.40;48.10
72604;DHT22;60645;56.968;24.196;2023-07-31T08:59:30;29.60;50.20
72604;DHT22;60645;56.968;24.196;2023-07-31T09:01:58;28.90;51.80
72604;DHT22;60645;56.968;24.196;2023-07-31T09:04:25;29.40;51.50
72604;DHT22;60645;56.968;24.196;2023-07-31T09:06:56;27.00;55.30
72604;DHT22;60645;56.968;24.196;2023-07-31T09:09:24;27.00;55.40
72604;DHT22;60645;56.968;24.196;2023-07-31T09:11:51;25.10;60.50
72604;DHT22;60645;56.968;24.196;2023-07-31T09:14:18;24.40;62.80
72604;DHT22;60645;56.968;24.196;2023-07-31T09:16:55;24.10;63.90
72604;DHT22;60645;56.968;24.196;2023-07-31T09:19:40;23.70;65.60
72604;DHT22;60645;56.968;24.196;2023-07-31T09:22:07;23.00;67.40
72604;DHT22;60645;56.968;24.196;2023-07-31T09:24:35;22.60;68.40
72604;DHT22;60645;56.968;24.196;2023-07-31T09:27:02;22.60;68.60
72604;DHT22;60645;56.968;24.196;2023-07-31T09:29:29;22.40;69.30
72604;DHT22;60645;56.968;24.196;2023-07-31T09:31:56;22.40;69.50
72604;DHT22;60645;56.968;24.196;2023-07-31T09:34:36;22.40;71.50
72604;DHT22;60645;56.968;24.196;2023-07-31T09:37:05;22.00;71.20
72604;DHT22;60645;56.968;24.196;2023-07-31T09:39:32;21.60;72.70
72604;DHT22;60645;56.968;24.196;2023-07-31T09:41:58;21.40;73.30
72604;DHT22;60645;56.968;24.196;2023-07-31T09:44:37;21.20;74.10
72604;DHT22;60645;56.968;24.196;2023-07-31T09:47:04;20.90;75.70
72604;DHT22;60645;56.968;24.196;2023-07-31T09:49:30;20.40;82.10
72604;DHT22;60645;56.968;24.196;2023-07-31T09:51:57;19.80;85.90
72604;DHT22;60645;56.968;24.196;2023-07-31T09:54:24;19.40;88.70
72604;DHT22;60645;56.968;24.196;2023-07-31T09:56:51;19.20;88.80
72604;DHT22;60645;56.968;24.196;2023-07-31T09:59:19;19.10;91.70
72604;DHT22;60645;56.968;24.196;2023-07-31T10:01:50;19.10;91.30
72604;DHT22;60645;56.968;24.196;2023-07-31T10:04:17;19.10;90.60
72604;DHT22;60645;56.968;24.196;2023-07-31T10:06:47;18.90;91.70
72604;DHT22;60645;56.968;24.196;2023-07-31T10:09:15;18.80;92.30
72604;DHT22;60645;56.968;24.196;2023-07-31T10:11:50;18.80;93.60
72604;DHT22;60645;56.968;24.196;2023-07-31T10:14:19;18.80;93.90
72604;DHT22;60645;56.968;24.196;2023-07-31T10:16:47;18.90;95.00
72604;DHT22;60645;56.968;24.196;2023-07-31T10:19:14;18.90;94.60
72604;DHT22;60645;56.968;24.196;2023-07-31T10:21:41;18.70;92.30
72604;DHT22;60645;56.968;24.196;2023-07-31T10:24:08;18.80;93.30
72604;DHT22;60645;56.968;24.196;2023-07-31T10:26:35;18.70;94.70
72604;DHT22;60645;56.968;24.196;2023-07-31T10:29:04;18.80;95.20
72604;DHT22;60645;56.968;24.196;2023-07-31T10:31:32;18.80;94.90
72604;DHT22;60645;56.968;24.196;2023-07-31T10:33:59;18.90;93.50
72604;DHT22;60645;56.968;24.196;2023-07-31T10:36:29;18.80;92.00
72604;DHT22;60645;56.968;24.196;2023-07-31T10:38:56;18.60;92.10
72604;DHT22;60645;56.968;24.196;2023-07-31T10:41:29;18.40;89.50
72604;DHT22;60645;56.968;24.196;2023-07-31T10:44:00;17.70;88.70
72604;DHT22;60645;56.968;24.196;2023-07-31T10:46:30;17.60;88.70
72604;DHT22;60645;56.968;24.196;2023-07-31T10:48:58;17.60;88.90
72604;DHT22;60645;56.968;24.196;2023-07-31T10:51:31;17.60;89.60
72604;DHT22;60645;56.968;24.196;2023-07-31T10:54:15;17.70;85.80
72604;DHT22;60645;56.968;24.196;2023-07-31T10:56:45;17.90;88.40
72604;DHT22;60645;56.968;24.196;2023-07-31T10:59:13;18.60;88.70
72604;DHT22;60645;56.968;24.196;2023-07-31T11:01:49;19.30;88.70
72604;DHT22;60645;56.968;24.196;2023-07-31T11:04:21;20.70;85.90
72604;DHT22;60645;56.968;24.196;2023-07-31T11:06:58;23.50;78.10
72604;DHT22;60645;56.968;24.196;2023-07-31T11:09:27;24.80;73.50
72604;DHT22;60645;56.968;24.196;2023-07-31T11:11:55;25.10;73.50
72604;DHT22;60645;56.968;24.196;2023-07-31T11:14:22;25.30;73.00
72604;DHT22;60645;56.968;24.196;2023-07-31T11:16:52;25.50;69.10
72604;DHT22;60645;56.968;24.196;2023-07-31T11:19:24;25.30;69.80
72604;DHT22;60645;56.968;24.196;2023-07-31T11:21:52;24.80;71.40
72604;DHT22;60645;56.968;24.196;2023-07-31T11:24:20;24.70;72.10
72604;DHT22;60645;56.968;24.196;2023-07-31T11:26:50;24.40;72.50
72604;DHT22;60645;56.968;24.196;2023-07-31T11:29:17;24.40;74.40
72604;DHT22;60645;56.968;24.196;2023-07-31T11:31:45;24.40;72.40
72604;DHT22;60645;56.968;24.196;2023-07-31T11:34:13;24.10;73.50
72604;DHT22;60645;56.968;24.196;2023-07-31T11:36:40;24.00;72.10
72604;DHT22;60645;56.968;24.196;2023-07-31T11:39:08;24.50;71.50
72604;DHT22;60645;56.968;24.196;2023-07-31T11:41:35;26.10;66.10
72604;DHT22;60645;56.968;24.196;2023-07-31T11:44:02;28.10;58.20
72604;DHT22;60645;56.968;24.196;2023-07-31T11:46:46;29.40;56.10
72604;DHT22;60645;56.968;24.196;2023-07-31T11:49:13;30.10;52.70
72604;DHT22;60645;56.968;24.196;2023-07-31T11:51:41;30.30;53.60
72604;DHT22;60645;56.968;24.196;2023-07-31T11:56:35;28.40;56.80
72604;DHT22;60645;56.968;24.196;2023-07-31T12:03:59;31.10;50.90
72604;DHT22;60645;56.968;24.196;2023-07-31T12:06:33;31.80;49.50
72604;DHT22;60645;56.968;24.196;2023-07-31T12:09:02;32.10;48.10
72604;DHT22;60645;56.968;24.196;2023-07-31T12:11:28;32.30;48.30
72604;DHT22;60645;56.968;24.196;2023-07-31T12:13:55;33.00;46.20
72604;DHT22;60645;56.968;24.196;2023-07-31T12:16:25;32.40;46.30
72604;DHT22;60645;56.968;24.196;2023-07-31T12:18:52;32.10;46.90
72604;DHT22;60645;56.968;24.196;2023-07-31T12:21:19;32.00;47.10
72604;DHT22;60645;56.968;24.196;2023-07-31T12:23:46;31.70;48.10
72604;DHT22;60645;56.968;24.196;2023-07-31T12:26:13;31.90;45.60
72604;DHT22;60645;56.968;24.196;2023-07-31T12:28:47;32.40;43.90
72604;DHT22;60645;56.968;24.196;2023-07-31T12:31:17;32.40;44.30
72604;DHT22;60645;56.968;24.196;2023-07-31T12:33:45;32.60;45.10
72604;DHT22;60645;56.968;24.196;2023-07-31T12:36:13;32.20;45.40
72604;DHT22;60645;56.968;24.196;2023-07-31T12:38:40;32.00;46.20
72604;DHT22;60645;56.968;24.196;2023-07-31T12:41:09;32.20;45.00
72604;DHT22;60645;56.968;24.196;2023-07-31T12:43:37;32.60;43.90
72604;DHT22;60645;56.968;24.196;2023-07-31T12:46:04;32.90;44.60
72604;DHT22;60645;56.968;24.196;2023-07-31T12:48:31;32.30;44.00
72604;DHT22;60645;56.968;24.196;2023-07-31T12:50:58;31.30;44.70
72604;DHT22;60645;56.968;24.196;2023-07-31T12:53:25;32.10;44.00
72604;DHT22;60645;56.968;24.196;2023-07-31T12:55:51;33.00;42.20
72604;DHT22;60645;56.968;24.196;2023-07-31T12:58:18;33.20;42.90
72604;DHT22;60645;56.968;24.196;2023-07-31T13:00:45;33.60;42.40
72604;DHT22;60645;56.968;24.196;2023-07-31T13:03:12;33.10;42.40
72604;DHT22;60645;56.968;24.196;2023-07-31T13:05:39;32.40;42.20
72604;DHT22;60645;56.968;24.196;2023-07-31T13:08:06;32.10;42.70
72604;DHT22;60645;56.968;24.196;2023-07-31T13:10:32;32.50;40.90
72604;DHT22;60645;56.968;24.196;2023-07-31T13:12:59;32.30;40.40
72604;DHT22;60645;56.968;24.196;2023-07-31T13:15:26;30.70;42.20
72604;DHT22;60645;56.968;24.196;2023-07-31T13:17:53;27.90;47.40
72604;DHT22;60645;56.968;24.196;2023-07-31T13:20:20;26.00;52.40
72604;DHT22;60645;56.968;24.196;2023-07-31T13:22:46;24.60;53.90
72604;DHT22;60645;56.968;24.196;2023-07-31T13:25:13;23.90;54.80
72604;DHT22;60645;56.968;24.196;2023-07-31T13:27:40;23.40;56.60
72604;DHT22;60645;56.968;24.196;2023-07-31T13:30:07;23.10;58.20
72604;DHT22;60645;56.968;24.196;2023-07-31T13:32:34;22.90;59.70
72604;DHT22;60645;56.968;24.196;2023-07-31T13:35:06;22.70;61.50
72604;DHT22;60645;56.968;24.196;2023-07-31T13:37:33;22.60;61.70
72604;DHT22;60645;56.968;24.196;2023-07-31T13:40:00;22.50;60.10
72604;DHT22;60645;56.968;24.196;2023-07-31T13:42:27;22.50;62.40
72604;DHT22;60645;56.968;24.196;2023-07-31T13:44:56;22.40;63.00
72604;DHT22;60645;56.968;24.196;2023-07-31T13:47:23;22.20;63.70
72604;DHT22;60645;56.968;24.196;2023-07-31T13:49:49;22.10;65.10
72604;DHT22;60645;56.968;24.196;2023-07-31T13:52:16;22.00;63.80
72604;DHT22;60645;56.968;24.196;2023-07-31T13:54:43;21.90;66.00
72604;DHT22;60645;56.968;24.196;2023-07-31T13:57:10;21.90;66.00
72604;DHT22;60645;56.968;24.196;2023-07-31T13:59:37;22.00;66.90
72604;DHT22;60645;56.968;24.196;2023-07-31T14:02:03;22.10;67.40
72604;DHT22;60645;56.968;24.196;2023-07-31T14:04:30;22.10;66.20
72604;DHT22;60645;56.968;24.196;2023-07-31T14:06:58;22.20;67.60
72604;DHT22;60645;56.968;24.196;2023-07-31T14:09:25;22.40;66.60
72604;DHT22;60645;56.968;24.196;2023-07-31T14:11:52;22.50;66.50
72604;DHT22;60645;56.968;24.196;2023-07-31T14:14:19;22.80;67.30
72604;DHT22;60645;56.968;24.196;2023-07-31T14:16:46;22.90;65.10
72604;DHT22;60645;56.968;24.196;2023-07-31T14:19:13;23.00;64.10
72604;DHT22;60645;56.968;24.196;2023-07-31T14:21:40;23.10;62.10
72604;DHT22;60645;56.968;24.196;2023-07-31T14:24:07;23.20;61.00
72604;DHT22;60645;56.968;24.196;2023-07-31T14:26:33;23.20;62.80
72604;DHT22;60645;56.968;24.196;2023-07-31T14:29:00;23.30;59.60
72604;DHT22;60645;56.968;24.196;2023-07-31T14:31:27;23.30;59.30
72604;DHT22;60645;56.968;24.196;2023-07-31T14:33:54;23.20;59.40
72604;DHT22;60645;56.968;24.196;2023-07-31T14:36:23;23.20;60.70
72604;DHT22;60645;56.968;24.196;2023-07-31T14:38:50;22.90;61.60
72604;DHT22;60645;56.968;24.196;2023-07-31T14:41:17;22.90;61.50
72604;DHT22;60645;56.968;24.196;2023-07-31T14:43:44;22.80;60.90
72604;DHT22;60645;56.968;24.196;2023-07-31T14:46:11;22.80;60.80
72604;DHT22;60645;56.968;24.196;2023-07-31T14:48:37;22.70;58.70
72604;DHT22;60645;56.968;24.196;2023-07-31T14:51:04;22.70;58.80
72604;DHT22;60645;56.968;24.196;2023-07-31T14:53:31;22.80;60.30
72604;DHT22;60645;56.968;24.196;2023-07-31T14:55:58;22.90;58.80
72604;DHT22;60645;56.968;24.196;2023-07-31T14:58:25;23.00;55.10
72604;DHT22;60645;56.968;24.196;2023-07-31T15:00:51;23.00;58.40
72604;DHT22;60645;56.968;24.196;2023-07-31T15:03:18;22.90;58.70
72604;DHT22;60645;56.968;24.196;2023-07-31T15:05:45;22.80;59.00
72604;DHT22;60645;56.968;24.196;2023-07-31T15:08:12;22.60;56.80
72604;DHT22;60645;56.968;24.196;2023-07-31T15:10:39;22.40;59.90
72604;DHT22;60645;56.968;24.196;2023-07-31T15:13:05;22.20;58.20
72604;DHT22;60645;56.968;24.196;2023-07-31T15:15:32;22.20;59.00
72604;DHT22;60645;56.968;24.196;2023-07-31T15:17:59;22.10;59.20
72604;DHT22;60645;56.968;24.196;2023-07-31T15:20:26;22.00;59.20
72604;DHT22;60645;56.968;24.196;2023-07-31T15:22:53;22.00;59.10
72604;DHT22;60645;56.968;24.196;2023-07-31T15:25:19;22.00;59.90
72604;DHT22;60645;56.968;24.196;2023-07-31T15:27:46;21.90;60.70
72604;DHT22;60645;56.968;24.196;2023-07-31T15:30:13;21.90;61.10
72604;DHT22;60645;56.968;24.196;2023-07-31T15:32:40;21.80;61.20
72604;DHT22;60645;56.968;24.196;2023-07-31T15:35:07;21.80;60.80
72604;DHT22;60645;56.968;24.196;2023-07-31T15:37:34;21.70;60.50